Terminal Aerodrome Forecast
Issued by NWS Wilmington, NC

Home | Current Version | Previous Version | Text Only | Print | Product List | Glossary On
Versions: 1 2 3 4 5 6 7 8 9 10 11 12 13 14 15 16
000
FTUS42 KILM 012300
TAFILM
TAF
KILM 012330Z 0200/0224 21006KT P6SM VCSH FEW015 FEW050 SCT120
     FM020900 24004KT P6SM FEW040 SCT250
     FM021300 27008KT P6SM SCT015 SCT050 SCT120
     FM021800 19011KT P6SM VCSH SCT050=

USA.gov is the U.S. government's official web portal to all federal, state and local government web resources and services.